sensor_id;sensor_type;location;lat;lon;timestamp;P1;durP1;ratioP1;P2;durP2;ratioP2
26820;SDS011;37186;51.394;5.454;2023-05-21T00:02:57;8.00;;;7.80;;
26820;SDS011;37186;51.394;5.454;2023-05-21T00:05:57;7.95;;;7.75;;
26820;SDS011;37186;51.394;5.454;2023-05-21T00:09:01;7.35;;;7.15;;
26820;SDS011;37186;51.394;5.454;2023-05-21T00:12:03;7.07;;;6.88;;
26820;SDS011;37186;51.394;5.454;2023-05-21T00:15:04;7.10;;;6.90;;
26820;SDS011;37186;51.394;5.454;2023-05-21T00:18:06;6.63;;;6.43;;
26820;SDS011;37186;51.394;5.454;2023-05-21T00:21:07;6.78;;;6.57;;
26820;SDS011;37186;51.394;5.454;2023-05-21T00:24:08;6.88;;;6.68;;
26820;SDS011;37186;51.394;5.454;2023-05-21T00:27:08;6.32;;;6.13;;
26820;SDS011;37186;51.394;5.454;2023-05-21T00:30:09;6.20;;;6.00;;
26820;SDS011;37186;51.394;5.454;2023-05-21T00:33:10;5.20;;;5.10;;
26820;SDS011;37186;51.394;5.454;2023-05-21T00:36:12;5.80;;;5.65;;
26820;SDS011;37186;51.394;5.454;2023-05-21T00:39:13;6.20;;;6.00;;
26820;SDS011;37186;51.394;5.454;2023-05-21T00:42:15;5.70;;;5.55;;
26820;SDS011;37186;51.394;5.454;2023-05-21T00:45:17;5.57;;;5.45;;
26820;SDS011;37186;51.394;5.454;2023-05-21T00:48:17;5.57;;;5.45;;
26820;SDS011;37186;51.394;5.454;2023-05-21T00:51:19;4.90;;;4.80;;
26820;SDS011;37186;51.394;5.454;2023-05-21T00:54:20;4.95;;;4.85;;
26820;SDS011;37186;51.394;5.454;2023-05-21T00:57:22;4.85;;;4.75;;
26820;SDS011;37186;51.394;5.454;2023-05-21T01:00:25;5.13;;;5.03;;
26820;SDS011;37186;51.394;5.454;2023-05-21T01:03:27;4.68;;;4.57;;
26820;SDS011;37186;51.394;5.454;2023-05-21T01:06:29;4.75;;;4.65;;
26820;SDS011;37186;51.394;5.454;2023-05-21T01:09:33;4.50;;;4.40;;
26820;SDS011;37186;51.394;5.454;2023-05-21T01:12:34;4.30;;;4.20;;
26820;SDS011;37186;51.394;5.454;2023-05-21T01:15:37;4.35;;;4.25;;
26820;SDS011;37186;51.394;5.454;2023-05-21T01:18:37;4.70;;;4.60;;
26820;SDS011;37186;51.394;5.454;2023-05-21T01:21:40;4.85;;;4.75;;
26820;SDS011;37186;51.394;5.454;2023-05-21T01:24:43;5.05;;;4.95;;
26820;SDS011;37186;51.394;5.454;2023-05-21T01:27:46;4.78;;;4.68;;
26820;SDS011;37186;51.394;5.454;2023-05-21T01:30:47;4.75;;;4.65;;
26820;SDS011;37186;51.394;5.454;2023-05-21T01:33:48;4.57;;;4.47;;
26820;SDS011;37186;51.394;5.454;2023-05-21T01:36:54;4.15;;;4.05;;
26820;SDS011;37186;51.394;5.454;2023-05-21T01:40:13;4.25;;;4.15;;
26820;SDS011;37186;51.394;5.454;2023-05-21T01:43:19;4.15;;;4.05;;
26820;SDS011;37186;51.394;5.454;2023-05-21T01:46:22;4.45;;;4.35;;
26820;SDS011;37186;51.394;5.454;2023-05-21T01:49:25;3.75;;;3.65;;
26820;SDS011;37186;51.394;5.454;2023-05-21T01:52:26;3.90;;;3.80;;
26820;SDS011;37186;51.394;5.454;2023-05-21T01:55:26;3.95;;;3.85;;
26820;SDS011;37186;51.394;5.454;2023-05-21T01:58:30;3.75;;;3.65;;
26820;SDS011;37186;51.394;5.454;2023-05-21T02:01:30;3.70;;;3.60;;
26820;SDS011;37186;51.394;5.454;2023-05-21T02:04:31;3.95;;;3.85;;
26820;SDS011;37186;51.394;5.454;2023-05-21T02:07:32;3.88;;;3.78;;
26820;SDS011;37186;51.394;5.454;2023-05-21T02:10:32;4.05;;;3.95;;
26820;SDS011;37186;51.394;5.454;2023-05-21T02:13:34;3.70;;;3.60;;
26820;SDS011;37186;51.394;5.454;2023-05-21T02:16:41;3.80;;;3.70;;
26820;SDS011;37186;51.394;5.454;2023-05-21T02:19:41;3.97;;;3.88;;
26820;SDS011;37186;51.394;5.454;2023-05-21T02:22:44;3.88;;;3.78;;
26820;SDS011;37186;51.394;5.454;2023-05-21T02:25:46;3.97;;;3.88;;
26820;SDS011;37186;51.394;5.454;2023-05-21T02:28:46;3.88;;;3.78;;
26820;SDS011;37186;51.394;5.454;2023-05-21T02:31:47;4.25;;;4.15;;
26820;SDS011;37186;51.394;5.454;2023-05-21T02:34:47;3.83;;;3.72;;
26820;SDS011;37186;51.394;5.454;2023-05-21T02:37:49;3.95;;;3.85;;
26820;SDS011;37186;51.394;5.454;2023-05-21T02:40:49;3.90;;;3.80;;
26820;SDS011;37186;51.394;5.454;2023-05-21T02:43:50;3.95;;;3.85;;
26820;SDS011;37186;51.394;5.454;2023-05-21T02:46:51;4.22;;;4.13;;
26820;SDS011;37186;51.394;5.454;2023-05-21T02:49:51;3.85;;;3.75;;
26820;SDS011;37186;51.394;5.454;2023-05-21T02:52:52;4.05;;;3.95;;
26820;SDS011;37186;51.394;5.454;2023-05-21T02:55:53;4.22;;;4.13;;
26820;SDS011;37186;51.394;5.454;2023-05-21T02:58:53;3.83;;;3.72;;
26820;SDS011;37186;51.394;5.454;2023-05-21T03:01:54;3.97;;;3.88;;
26820;SDS011;37186;51.394;5.454;2023-05-21T03:04:54;4.30;;;4.20;;
26820;SDS011;37186;51.394;5.454;2023-05-21T03:07:55;4.25;;;4.15;;
26820;SDS011;37186;51.394;5.454;2023-05-21T03:10:56;3.80;;;3.70;;
26820;SDS011;37186;51.394;5.454;2023-05-21T03:13:56;3.63;;;3.53;;
26820;SDS011;37186;51.394;5.454;2023-05-21T03:16:57;3.88;;;3.78;;
26820;SDS011;37186;51.394;5.454;2023-05-21T03:19:57;4.05;;;3.95;;
26820;SDS011;37186;51.394;5.454;2023-05-21T03:22:58;3.40;;;3.30;;
26820;SDS011;37186;51.394;5.454;2023-05-21T03:25:59;3.90;;;3.80;;
26820;SDS011;37186;51.394;5.454;2023-05-21T03:29:01;3.60;;;3.50;;
26820;SDS011;37186;51.394;5.454;2023-05-21T03:32:01;3.75;;;3.65;;
26820;SDS011;37186;51.394;5.454;2023-05-21T03:35:03;3.45;;;3.35;;
26820;SDS011;37186;51.394;5.454;2023-05-21T03:38:04;3.50;;;3.40;;
26820;SDS011;37186;51.394;5.454;2023-05-21T03:41:07;3.38;;;3.28;;
26820;SDS011;37186;51.394;5.454;2023-05-21T03:44:09;3.17;;;3.08;;
26820;SDS011;37186;51.394;5.454;2023-05-21T03:47:10;3.33;;;3.22;;
26820;SDS011;37186;51.394;5.454;2023-05-21T03:50:10;3.20;;;3.10;;
26820;SDS011;37186;51.394;5.454;2023-05-21T03:53:11;3.00;;;2.90;;
26820;SDS011;37186;51.394;5.454;2023-05-21T03:56:12;3.20;;;3.10;;
26820;SDS011;37186;51.394;5.454;2023-05-21T03:59:13;3.25;;;3.15;;
26820;SDS011;37186;51.394;5.454;2023-05-21T04:02:13;3.05;;;2.95;;
26820;SDS011;37186;51.394;5.454;2023-05-21T04:05:14;3.05;;;2.95;;
26820;SDS011;37186;51.394;5.454;2023-05-21T04:08:14;3.05;;;2.95;;
26820;SDS011;37186;51.394;5.454;2023-05-21T04:11:15;3.03;;;2.92;;
26820;SDS011;37186;51.394;5.454;2023-05-21T04:14:16;3.15;;;3.05;;
26820;SDS011;37186;51.394;5.454;2023-05-21T04:17:17;3.15;;;3.05;;
26820;SDS011;37186;51.394;5.454;2023-05-21T04:20:18;2.95;;;2.85;;
26820;SDS011;37186;51.394;5.454;2023-05-21T04:23:18;2.88;;;2.78;;
26820;SDS011;37186;51.394;5.454;2023-05-21T04:26:22;2.78;;;2.67;;
26820;SDS011;37186;51.394;5.454;2023-05-21T04:29:24;3.10;;;3.00;;
26820;SDS011;37186;51.394;5.454;2023-05-21T04:32:24;2.92;;;2.83;;
26820;SDS011;37186;51.394;5.454;2023-05-21T04:35:27;2.97;;;2.88;;
26820;SDS011;37186;51.394;5.454;2023-05-21T04:38:27;3.10;;;3.00;;
26820;SDS011;37186;51.394;5.454;2023-05-21T04:41:28;3.03;;;2.92;;
26820;SDS011;37186;51.394;5.454;2023-05-21T04:44:28;2.92;;;2.83;;
26820;SDS011;37186;51.394;5.454;2023-05-21T04:47:29;2.97;;;2.88;;
26820;SDS011;37186;51.394;5.454;2023-05-21T04:50:34;3.00;;;2.90;;
26820;SDS011;37186;51.394;5.454;2023-05-21T04:53:34;2.88;;;2.78;;
26820;SDS011;37186;51.394;5.454;2023-05-21T04:56:35;3.00;;;2.90;;
26820;SDS011;37186;51.394;5.454;2023-05-21T04:59:35;2.80;;;2.72;;
26820;SDS011;37186;51.394;5.454;2023-05-21T05:02:36;3.00;;;2.90;;
26820;SDS011;37186;51.394;5.454;2023-05-21T05:05:37;3.20;;;3.10;;
26820;SDS011;37186;51.394;5.454;2023-05-21T05:08:38;3.00;;;2.90;;
26820;SDS011;37186;51.394;5.454;2023-05-21T05:11:38;3.10;;;3.00;;
26820;SDS011;37186;51.394;5.454;2023-05-21T05:14:39;3.55;;;3.45;;
26820;SDS011;37186;51.394;5.454;2023-05-21T05:17:39;3.20;;;3.10;;
26820;SDS011;37186;51.394;5.454;2023-05-21T05:20:40;3.22;;;3.13;;
26820;SDS011;37186;51.394;5.454;2023-05-21T05:23:41;3.40;;;3.30;;
26820;SDS011;37186;51.394;5.454;2023-05-21T05:26:41;3.60;;;3.50;;
26820;SDS011;37186;51.394;5.454;2023-05-21T05:29:42;4.13;;;4.03;;
26820;SDS011;37186;51.394;5.454;2023-05-21T05:32:43;3.75;;;3.65;;
26820;SDS011;37186;51.394;5.454;2023-05-21T05:35:44;4.10;;;4.00;;
26820;SDS011;37186;51.394;5.454;2023-05-21T05:38:45;3.95;;;3.85;;
26820;SDS011;37186;51.394;5.454;2023-05-21T05:41:45;3.83;;;3.72;;
26820;SDS011;37186;51.394;5.454;2023-05-21T05:44:46;3.80;;;3.70;;
26820;SDS011;37186;51.394;5.454;2023-05-21T05:47:46;4.10;;;4.00;;
26820;SDS011;37186;51.394;5.454;2023-05-21T05:50:47;4.22;;;4.13;;
26820;SDS011;37186;51.394;5.454;2023-05-21T05:53:48;4.82;;;4.72;;
26820;SDS011;37186;51.394;5.454;2023-05-21T05:56:48;4.72;;;4.63;;
26820;SDS011;37186;51.394;5.454;2023-05-21T05:59:49;4.93;;;4.82;;
26820;SDS011;37186;51.394;5.454;2023-05-21T06:02:49;5.13;;;5.03;;
26820;SDS011;37186;51.394;5.454;2023-05-21T06:05:50;5.03;;;4.93;;
26820;SDS011;37186;51.394;5.454;2023-05-21T06:08:51;5.13;;;5.03;;
26820;SDS011;37186;51.394;5.454;2023-05-21T06:11:51;5.10;;;5.00;;
26820;SDS011;37186;51.394;5.454;2023-05-21T06:14:52;5.28;;;5.18;;
26820;SDS011;37186;51.394;5.454;2023-05-21T06:17:52;5.07;;;4.97;;
26820;SDS011;37186;51.394;5.454;2023-05-21T06:20:53;5.25;;;5.15;;
26820;SDS011;37186;51.394;5.454;2023-05-21T06:23:53;5.45;;;5.35;;
26820;SDS011;37186;51.394;5.454;2023-05-21T06:26:54;5.00;;;4.90;;
26820;SDS011;37186;51.394;5.454;2023-05-21T06:29:55;5.15;;;5.05;;
26820;SDS011;37186;51.394;5.454;2023-05-21T06:32:56;5.00;;;4.90;;
26820;SDS011;37186;51.394;5.454;2023-05-21T06:35:56;4.90;;;4.80;;
26820;SDS011;37186;51.394;5.454;2023-05-21T06:38:57;4.90;;;4.80;;
26820;SDS011;37186;51.394;5.454;2023-05-21T06:41:57;4.50;;;4.40;;
26820;SDS011;37186;51.394;5.454;2023-05-21T06:44:58;5.32;;;5.22;;
26820;SDS011;37186;51.394;5.454;2023-05-21T06:47:58;5.07;;;4.97;;
26820;SDS011;37186;51.394;5.454;2023-05-21T06:50:59;5.28;;;5.18;;
26820;SDS011;37186;51.394;5.454;2023-05-21T06:54:00;4.95;;;4.85;;
26820;SDS011;37186;51.394;5.454;2023-05-21T06:57:00;5.13;;;5.03;;
26820;SDS011;37186;51.394;5.454;2023-05-21T07:00:01;5.47;;;5.38;;
26820;SDS011;37186;51.394;5.454;2023-05-21T07:03:01;5.75;;;5.60;;
26820;SDS011;37186;51.394;5.454;2023-05-21T07:06:02;5.32;;;5.22;;
26820;SDS011;37186;51.394;5.454;2023-05-21T07:09:03;5.47;;;5.38;;
26820;SDS011;37186;51.394;5.454;2023-05-21T07:12:05;5.30;;;5.20;;
26820;SDS011;37186;51.394;5.454;2023-05-21T07:15:06;5.20;;;5.10;;
26820;SDS011;37186;51.394;5.454;2023-05-21T07:18:06;4.95;;;4.85;;
26820;SDS011;37186;51.394;5.454;2023-05-21T07:21:07;5.30;;;5.20;;
26820;SDS011;37186;51.394;5.454;2023-05-21T07:24:07;5.20;;;5.10;;
26820;SDS011;37186;51.394;5.454;2023-05-21T07:27:08;5.78;;;5.63;;
26820;SDS011;37186;51.394;5.454;2023-05-21T07:30:09;5.90;;;5.72;;
26820;SDS011;37186;51.394;5.454;2023-05-21T07:33:09;5.00;;;4.90;;
26820;SDS011;37186;51.394;5.454;2023-05-21T07:36:11;5.30;;;5.20;;
26820;SDS011;37186;51.394;5.454;2023-05-21T07:39:11;4.75;;;4.65;;
26820;SDS011;37186;51.394;5.454;2023-05-21T07:42:12;4.38;;;4.28;;
26820;SDS011;37186;51.394;5.454;2023-05-21T07:45:12;4.60;;;4.50;;
26820;SDS011;37186;51.394;5.454;2023-05-21T07:48:13;4.57;;;4.47;;
26820;SDS011;37186;51.394;5.454;2023-05-21T07:51:14;4.22;;;4.13;;
26820;SDS011;37186;51.394;5.454;2023-05-21T07:54:15;4.57;;;4.47;;
26820;SDS011;37186;51.394;5.454;2023-05-21T07:57:16;4.38;;;4.28;;
26820;SDS011;37186;51.394;5.454;2023-05-21T08:00:17;4.65;;;4.55;;
26820;SDS011;37186;51.394;5.454;2023-05-21T08:03:17;4.70;;;4.60;;
26820;SDS011;37186;51.394;5.454;2023-05-21T08:06:18;4.70;;;4.60;;
26820;SDS011;37186;51.394;5.454;2023-05-21T08:09:19;4.68;;;4.57;;
26820;SDS011;37186;51.394;5.454;2023-05-21T08:12:19;5.35;;;5.25;;
26820;SDS011;37186;51.394;5.454;2023-05-21T08:15:20;5.20;;;5.10;;
26820;SDS011;37186;51.394;5.454;2023-05-21T08:18:20;5.35;;;5.25;;
26820;SDS011;37186;51.394;5.454;2023-05-21T08:21:22;5.72;;;5.60;;
26820;SDS011;37186;51.394;5.454;2023-05-21T08:24:23;5.57;;;5.45;;
26820;SDS011;37186;51.394;5.454;2023-05-21T08:27:23;5.53;;;5.43;;
26820;SDS011;37186;51.394;5.454;2023-05-21T08:30:24;5.50;;;5.40;;
26820;SDS011;37186;51.394;5.454;2023-05-21T08:33:24;5.40;;;5.30;;
26820;SDS011;37186;51.394;5.454;2023-05-21T08:36:25;5.93;;;5.75;;
26820;SDS011;37186;51.394;5.454;2023-05-21T08:39:25;5.40;;;5.30;;
26820;SDS011;37186;51.394;5.454;2023-05-21T08:45:35;6.00;;;5.80;;
26820;SDS011;37186;51.394;5.454;2023-05-21T08:48:40;5.43;;;5.32;;
26820;SDS011;37186;51.394;5.454;2023-05-21T08:51:42;6.15;;;5.95;;
26820;SDS011;37186;51.394;5.454;2023-05-21T08:54:44;6.00;;;5.82;;
26820;SDS011;37186;51.394;5.454;2023-05-21T08:57:45;6.45;;;6.25;;
26820;SDS011;37186;51.394;5.454;2023-05-21T09:00:46;6.28;;;6.07;;
26820;SDS011;37186;51.394;5.454;2023-05-21T09:03:46;7.22;;;7.03;;
26820;SDS011;37186;51.394;5.454;2023-05-21T09:06:49;5.85;;;5.68;;
26820;SDS011;37186;51.394;5.454;2023-05-21T09:09:57;5.78;;;5.63;;
26820;SDS011;37186;51.394;5.454;2023-05-21T09:13:04;6.18;;;5.97;;
26820;SDS011;37186;51.394;5.454;2023-05-21T09:16:06;6.55;;;6.35;;
26820;SDS011;37186;51.394;5.454;2023-05-21T09:19:09;7.35;;;7.15;;
26820;SDS011;37186;51.394;5.454;2023-05-21T09:22:10;7.65;;;7.45;;
26820;SDS011;37186;51.394;5.454;2023-05-21T09:25:11;7.20;;;7.00;;
26820;SDS011;37186;51.394;5.454;2023-05-21T09:28:15;7.78;;;7.57;;
26820;SDS011;37186;51.394;5.454;2023-05-21T09:31:19;7.72;;;7.53;;
26820;SDS011;37186;51.394;5.454;2023-05-21T09:34:22;7.82;;;7.63;;
26820;SDS011;37186;51.394;5.454;2023-05-21T09:37:24;8.02;;;7.82;;
26820;SDS011;37186;51.394;5.454;2023-05-21T09:40:26;7.90;;;7.70;;
26820;SDS011;37186;51.394;5.454;2023-05-21T09:43:27;8.13;;;7.93;;
26820;SDS011;37186;51.394;5.454;2023-05-21T09:46:36;8.45;;;8.25;;
26820;SDS011;37186;51.394;5.454;2023-05-21T09:49:38;10.55;;;10.25;;
26820;SDS011;37186;51.394;5.454;2023-05-21T09:52:38;8.88;;;8.63;;
26820;SDS011;37186;51.394;5.454;2023-05-21T09:55:39;11.60;;;11.27;;
26820;SDS011;37186;51.394;5.454;2023-05-21T09:58:40;10.10;;;9.80;;
26820;SDS011;37186;51.394;5.454;2023-05-21T10:01:41;10.32;;;10.02;;
26820;SDS011;37186;51.394;5.454;2023-05-21T10:04:43;12.50;;;12.10;;
26820;SDS011;37186;51.394;5.454;2023-05-21T10:07:49;12.65;;;12.25;;
26820;SDS011;37186;51.394;5.454;2023-05-21T10:10:50;11.88;;;11.52;;
26820;SDS011;37186;51.394;5.454;2023-05-21T10:13:56;13.00;;;12.60;;
26820;SDS011;37186;51.394;5.454;2023-05-21T10:17:03;12.02;;;11.65;;
26820;SDS011;37186;51.394;5.454;2023-05-21T10:20:06;14.88;;;14.40;;
26820;SDS011;37186;51.394;5.454;2023-05-21T10:23:09;12.38;;;11.98;;
26820;SDS011;37186;51.394;5.454;2023-05-21T10:26:10;14.52;;;14.10;;
26820;SDS011;37186;51.394;5.454;2023-05-21T10:29:11;14.02;;;13.60;;
26820;SDS011;37186;51.394;5.454;2023-05-21T10:32:14;13.75;;;13.35;;
26820;SDS011;37186;51.394;5.454;2023-05-21T10:35:15;15.98;;;15.48;;
26820;SDS011;37186;51.394;5.454;2023-05-21T10:38:17;10.73;;;10.43;;
26820;SDS011;37186;51.394;5.454;2023-05-21T10:41:19;12.88;;;12.48;;
26820;SDS011;37186;51.394;5.454;2023-05-21T10:44:29;13.05;;;12.65;;
26820;SDS011;37186;51.394;5.454;2023-05-21T10:51:21;16.75;;;16.23;;
26820;SDS011;37186;51.394;5.454;2023-05-21T10:54:49;21.40;;;20.70;;
26820;SDS011;37186;51.394;5.454;2023-05-21T11:01:10;22.30;;;21.55;;
26820;SDS011;37186;51.394;5.454;2023-05-21T11:04:11;20.63;;;19.92;;
26820;SDS011;37186;51.394;5.454;2023-05-21T11:07:14;31.00;;;29.92;;
26820;SDS011;37186;51.394;5.454;2023-05-21T11:10:28;22.15;;;21.45;;
26820;SDS011;37186;51.394;5.454;2023-05-21T11:13:47;27.60;;;26.67;;
26820;SDS011;37186;51.394;5.454;2023-05-21T11:16:48;21.35;;;20.65;;
26820;SDS011;37186;51.394;5.454;2023-05-21T11:19:48;20.33;;;19.65;;
26820;SDS011;37186;51.394;5.454;2023-05-21T11:22:52;23.98;;;23.17;;
26820;SDS011;37186;51.394;5.454;2023-05-21T11:26:01;36.38;;;35.10;;
26820;SDS011;37186;51.394;5.454;2023-05-21T11:29:09;38.55;;;37.17;;
26820;SDS011;37186;51.394;5.454;2023-05-21T11:32:11;24.10;;;23.30;;
26820;SDS011;37186;51.394;5.454;2023-05-21T11:35:12;20.83;;;20.13;;
26820;SDS011;37186;51.394;5.454;2023-05-21T11:38:13;22.00;;;21.30;;
26820;SDS011;37186;51.394;5.454;2023-05-21T11:41:16;26.02;;;25.13;;
26820;SDS011;37186;51.394;5.454;2023-05-21T11:44:36;21.83;;;21.13;;
26820;SDS011;37186;51.394;5.454;2023-05-21T11:47:38;22.40;;;21.67;;
26820;SDS011;37186;51.394;5.454;2023-05-21T11:50:39;22.13;;;21.42;;
26820;SDS011;37186;51.394;5.454;2023-05-21T11:53:41;23.90;;;23.10;;
26820;SDS011;37186;51.394;5.454;2023-05-21T11:56:41;21.92;;;21.23;;
26820;SDS011;37186;51.394;5.454;2023-05-21T11:59:43;23.77;;;22.98;;
26820;SDS011;37186;51.394;5.454;2023-05-21T12:02:45;23.20;;;22.40;;
26820;SDS011;37186;51.394;5.454;2023-05-21T12:05:47;24.27;;;23.48;;
26820;SDS011;37186;51.394;5.454;2023-05-21T12:08:51;26.20;;;25.30;;
26820;SDS011;37186;51.394;5.454;2023-05-21T12:11:56;22.92;;;22.13;;
26820;SDS011;37186;51.394;5.454;2023-05-21T12:14:57;25.75;;;24.85;;
26820;SDS011;37186;51.394;5.454;2023-05-21T12:17:58;26.80;;;25.90;;
26820;SDS011;37186;51.394;5.454;2023-05-21T12:21:00;27.10;;;26.20;;
26820;SDS011;37186;51.394;5.454;2023-05-21T12:24:00;23.13;;;22.35;;
26820;SDS011;37186;51.394;5.454;2023-05-21T12:27:01;22.08;;;21.38;;
26820;SDS011;37186;51.394;5.454;2023-05-21T12:30:08;21.13;;;20.42;;
26820;SDS011;37186;51.394;5.454;2023-05-21T12:33:08;23.92;;;23.13;;
26820;SDS011;37186;51.394;5.454;2023-05-21T12:36:18;22.63;;;21.92;;
26820;SDS011;37186;51.394;5.454;2023-05-21T12:39:21;22.45;;;21.73;;
26820;SDS011;37186;51.394;5.454;2023-05-21T12:42:25;23.70;;;22.90;;
26820;SDS011;37186;51.394;5.454;2023-05-21T12:45:29;25.60;;;24.77;;
26820;SDS011;37186;51.394;5.454;2023-05-21T12:48:31;25.52;;;24.70;;
26820;SDS011;37186;51.394;5.454;2023-05-21T12:51:38;26.13;;;25.23;;
26820;SDS011;37186;51.394;5.454;2023-05-21T12:54:40;27.67;;;26.77;;
26820;SDS011;37186;51.394;5.454;2023-05-21T12:57:44;29.67;;;28.67;;
26820;SDS011;37186;51.394;5.454;2023-05-21T13:00:45;32.17;;;31.08;;
26820;SDS011;37186;51.394;5.454;2023-05-21T13:03:46;32.97;;;31.88;;
26820;SDS011;37186;51.394;5.454;2023-05-21T13:06:46;35.63;;;34.38;;
26820;SDS011;37186;51.394;5.454;2023-05-21T13:09:47;37.17;;;35.88;;
26820;SDS011;37186;51.394;5.454;2023-05-21T13:12:47;44.42;;;42.85;;
26820;SDS011;37186;51.394;5.454;2023-05-21T13:15:48;35.05;;;33.83;;
26820;SDS011;37186;51.394;5.454;2023-05-21T13:18:48;35.17;;;33.97;;
26820;SDS011;37186;51.394;5.454;2023-05-21T13:21:49;41.60;;;40.10;;
26820;SDS011;37186;51.394;5.454;2023-05-21T13:24:50;46.25;;;44.55;;
26820;SDS011;37186;51.394;5.454;2023-05-21T13:27:50;49.10;;;47.30;;
26820;SDS011;37186;51.394;5.454;2023-05-21T13:30:51;49.30;;;47.50;;
26820;SDS011;37186;51.394;5.454;2023-05-21T13:33:53;45.38;;;43.78;;
26820;SDS011;37186;51.394;5.454;2023-05-21T13:36:54;42.80;;;41.30;;
26820;SDS011;37186;51.394;5.454;2023-05-21T13:39:55;41.05;;;39.65;;
26820;SDS011;37186;51.394;5.454;2023-05-21T13:42:55;43.15;;;41.65;;
26820;SDS011;37186;51.394;5.454;2023-05-21T13:45:56;42.70;;;41.20;;
26820;SDS011;37186;51.394;5.454;2023-05-21T13:48:57;40.72;;;39.33;;
26820;SDS011;37186;51.394;5.454;2023-05-21T13:51:58;40.85;;;39.42;;
26820;SDS011;37186;51.394;5.454;2023-05-21T13:54:59;41.70;;;40.20;;
26820;SDS011;37186;51.394;5.454;2023-05-21T13:58:00;44.30;;;42.72;;
26820;SDS011;37186;51.394;5.454;2023-05-21T14:01:01;42.95;;;41.45;;
26820;SDS011;37186;51.394;5.454;2023-05-21T14:04:02;45.00;;;43.42;;
26820;SDS011;37186;51.394;5.454;2023-05-21T14:07:04;33.85;;;32.65;;
26820;SDS011;37186;51.394;5.454;2023-05-21T14:10:06;36.60;;;35.30;;
26820;SDS011;37186;51.394;5.454;2023-05-21T14:13:07;37.03;;;35.72;;
26820;SDS011;37186;51.394;5.454;2023-05-21T14:16:07;38.97;;;37.63;;
26820;SDS011;37186;51.394;5.454;2023-05-21T14:19:08;37.75;;;36.45;;
26820;SDS011;37186;51.394;5.454;2023-05-21T14:22:08;30.45;;;29.45;;
26820;SDS011;37186;51.394;5.454;2023-05-21T14:25:09;37.67;;;36.38;;
26820;SDS011;37186;51.394;5.454;2023-05-21T14:28:10;30.15;;;29.15;;
26820;SDS011;37186;51.394;5.454;2023-05-21T14:31:10;28.25;;;27.30;;
26820;SDS011;37186;51.394;5.454;2023-05-21T14:34:11;22.27;;;21.58;;
26820;SDS011;37186;51.394;5.454;2023-05-21T14:37:11;23.13;;;22.33;;
26820;SDS011;37186;51.394;5.454;2023-05-21T14:40:12;25.17;;;24.38;;
26820;SDS011;37186;51.394;5.454;2023-05-21T14:43:13;21.63;;;20.92;;
26820;SDS011;37186;51.394;5.454;2023-05-21T14:46:13;24.05;;;23.25;;
26820;SDS011;37186;51.394;5.454;2023-05-21T14:49:14;23.38;;;22.58;;
26820;SDS011;37186;51.394;5.454;2023-05-21T14:52:15;23.85;;;23.05;;
26820;SDS011;37186;51.394;5.454;2023-05-21T14:55:15;23.48;;;22.70;;
26820;SDS011;37186;51.394;5.454;2023-05-21T14:58:17;22.95;;;22.20;;
26820;SDS011;37186;51.394;5.454;2023-05-21T15:01:17;24.45;;;23.65;;
26820;SDS011;37186;51.394;5.454;2023-05-21T15:04:18;21.95;;;21.25;;
26820;SDS011;37186;51.394;5.454;2023-05-21T15:07:18;37.95;;;36.63;;
26820;SDS011;37186;51.394;5.454;2023-05-21T15:10:19;28.38;;;27.40;;
26820;SDS011;37186;51.394;5.454;2023-05-21T15:13:20;28.15;;;27.20;;
26820;SDS011;37186;51.394;5.454;2023-05-21T15:16:21;40.65;;;39.15;;
26820;SDS011;37186;51.394;5.454;2023-05-21T15:19:21;29.08;;;28.08;;
26820;SDS011;37186;51.394;5.454;2023-05-21T15:22:22;37.55;;;36.22;;
26820;SDS011;37186;51.394;5.454;2023-05-21T15:25:22;43.17;;;41.65;;
26820;SDS011;37186;51.394;5.454;2023-05-21T15:28:23;44.05;;;42.50;;
26820;SDS011;37186;51.394;5.454;2023-05-21T15:31:24;44.45;;;42.85;;
26820;SDS011;37186;51.394;5.454;2023-05-21T15:34:24;46.53;;;44.83;;
26820;SDS011;37186;51.394;5.454;2023-05-21T15:37:25;40.13;;;38.70;;
26820;SDS011;37186;51.394;5.454;2023-05-21T15:40:25;33.65;;;32.45;;
26820;SDS011;37186;51.394;5.454;2023-05-21T15:43:26;35.47;;;34.25;;
26820;SDS011;37186;51.394;5.454;2023-05-21T15:46:26;31.90;;;30.80;;
26820;SDS011;37186;51.394;5.454;2023-05-21T15:49:27;39.58;;;38.17;;
26820;SDS011;37186;51.394;5.454;2023-05-21T15:52:27;33.17;;;32.03;;
26820;SDS011;37186;51.394;5.454;2023-05-21T15:55:30;32.58;;;31.48;;
26820;SDS011;37186;51.394;5.454;2023-05-21T15:58:32;39.95;;;38.55;;
26820;SDS011;37186;51.394;5.454;2023-05-21T16:01:32;38.95;;;37.58;;
26820;SDS011;37186;51.394;5.454;2023-05-21T16:04:33;33.67;;;32.47;;
26820;SDS011;37186;51.394;5.454;2023-05-21T16:07:34;39.50;;;38.10;;
26820;SDS011;37186;51.394;5.454;2023-05-21T16:10:34;41.25;;;39.78;;
26820;SDS011;37186;51.394;5.454;2023-05-21T16:13:35;41.03;;;39.58;;
26820;SDS011;37186;51.394;5.454;2023-05-21T16:16:35;39.60;;;38.20;;
26820;SDS011;37186;51.394;5.454;2023-05-21T16:19:36;41.05;;;39.58;;
26820;SDS011;37186;51.394;5.454;2023-05-21T16:22:36;42.03;;;40.53;;
26820;SDS011;37186;51.394;5.454;2023-05-21T16:25:37;33.47;;;32.30;;
26820;SDS011;37186;51.394;5.454;2023-05-21T16:28:37;38.85;;;37.47;;
26820;SDS011;37186;51.394;5.454;2023-05-21T16:31:38;31.98;;;30.88;;
26820;SDS011;37186;51.394;5.454;2023-05-21T16:34:38;37.35;;;36.05;;
26820;SDS011;37186;51.394;5.454;2023-05-21T16:37:39;35.70;;;34.45;;
26820;SDS011;37186;51.394;5.454;2023-05-21T16:40:40;31.50;;;30.40;;
26820;SDS011;37186;51.394;5.454;2023-05-21T16:43:40;40.70;;;39.28;;
26820;SDS011;37186;51.394;5.454;2023-05-21T16:46:41;56.55;;;54.50;;
26820;SDS011;37186;51.394;5.454;2023-05-21T16:49:41;57.78;;;55.67;;
26820;SDS011;37186;51.394;5.454;2023-05-21T16:52:42;47.13;;;45.42;;
26820;SDS011;37186;51.394;5.454;2023-05-21T16:55:42;47.97;;;46.22;;
26820;SDS011;37186;51.394;5.454;2023-05-21T16:58:43;40.03;;;38.58;;
26820;SDS011;37186;51.394;5.454;2023-05-21T17:01:43;38.45;;;37.10;;
26820;SDS011;37186;51.394;5.454;2023-05-21T17:04:44;36.13;;;34.83;;
26820;SDS011;37186;51.394;5.454;2023-05-21T17:07:45;44.15;;;42.58;;
26820;SDS011;37186;51.394;5.454;2023-05-21T17:10:46;36.40;;;35.10;;
26820;SDS011;37186;51.394;5.454;2023-05-21T17:13:46;37.10;;;35.80;;
26820;SDS011;37186;51.394;5.454;2023-05-21T17:16:47;40.63;;;39.15;;
26820;SDS011;37186;51.394;5.454;2023-05-21T17:19:47;46.28;;;44.60;;
26820;SDS011;37186;51.394;5.454;2023-05-21T17:22:48;33.45;;;32.28;;
26820;SDS011;37186;51.394;5.454;2023-05-21T17:25:48;35.35;;;34.13;;
26820;SDS011;37186;51.394;5.454;2023-05-21T17:28:49;37.35;;;36.05;;
26820;SDS011;37186;51.394;5.454;2023-05-21T17:31:49;35.75;;;34.50;;
26820;SDS011;37186;51.394;5.454;2023-05-21T17:34:50;35.65;;;34.42;;
26820;SDS011;37186;51.394;5.454;2023-05-21T17:37:51;47.83;;;46.13;;
26820;SDS011;37186;51.394;5.454;2023-05-21T17:40:52;59.35;;;57.17;;
26820;SDS011;37186;51.394;5.454;2023-05-21T17:43:54;49.53;;;47.72;;
26820;SDS011;37186;51.394;5.454;2023-05-21T17:46:55;44.22;;;42.65;;
26820;SDS011;37186;51.394;5.454;2023-05-21T17:49:56;58.10;;;55.92;;
26820;SDS011;37186;51.394;5.454;2023-05-21T17:52:57;60.63;;;58.38;;
26820;SDS011;37186;51.394;5.454;2023-05-21T17:55:57;65.88;;;63.40;;
26820;SDS011;37186;51.394;5.454;2023-05-21T17:58:58;66.35;;;63.88;;
26820;SDS011;37186;51.394;5.454;2023-05-21T18:01:58;64.05;;;61.67;;
26820;SDS011;37186;51.394;5.454;2023-05-21T18:05:00;57.67;;;55.58;;
26820;SDS011;37186;51.394;5.454;2023-05-21T18:08:00;52.63;;;50.72;;
26820;SDS011;37186;51.394;5.454;2023-05-21T18:11:01;49.05;;;47.25;;